sensor_id;sensor_type;location;lat;lon;timestamp;temperature;humidity
61386;DHT22;47256;18.904;-99.054;2022-12-26T00:01:42;22.90;64.70
61386;DHT22;47256;18.904;-99.054;2022-12-26T00:04:10;22.90;64.40
61386;DHT22;47256;18.904;-99.054;2022-12-26T00:06:43;22.90;64.10
61386;DHT22;47256;18.904;-99.054;2022-12-26T00:09:11;22.80;63.00
61386;DHT22;47256;18.904;-99.054;2022-12-26T00:11:40;22.80;63.00
61386;DHT22;47256;18.904;-99.054;2022-12-26T00:14:12;22.70;62.90
61386;DHT22;47256;18.904;-99.054;2022-12-26T00:16:43;22.70;63.10
61386;DHT22;47256;18.904;-99.054;2022-12-26T00:19:10;22.60;63.20
61386;DHT22;47256;18.904;-99.054;2022-12-26T00:21:44;22.60;64.70
61386;DHT22;47256;18.904;-99.054;2022-12-26T00:24:11;22.60;63.40
61386;DHT22;47256;18.904;-99.054;2022-12-26T00:26:38;22.50;62.90
61386;DHT22;47256;18.904;-99.054;2022-12-26T00:29:05;22.50;63.00
61386;DHT22;47256;18.904;-99.054;2022-12-26T00:31:34;22.50;63.80
61386;DHT22;47256;18.904;-99.054;2022-12-26T00:34:02;22.50;63.90
61386;DHT22;47256;18.904;-99.054;2022-12-26T00:36:32;22.50;63.60
61386;DHT22;47256;18.904;-99.054;2022-12-26T00:39:01;22.50;62.70
61386;DHT22;47256;18.904;-99.054;2022-12-26T00:41:30;22.50;63.60
61386;DHT22;47256;18.904;-99.054;2022-12-26T00:44:04;22.50;63.20
61386;DHT22;47256;18.904;-99.054;2022-12-26T00:46:31;22.40;63.40
61386;DHT22;47256;18.904;-99.054;2022-12-26T00:48:59;22.40;64.20
61386;DHT22;47256;18.904;-99.054;2022-12-26T00:51:26;22.40;64.00
61386;DHT22;47256;18.904;-99.054;2022-12-26T00:53:54;22.40;64.00
61386;DHT22;47256;18.904;-99.054;2022-12-26T00:56:21;22.40;65.20
61386;DHT22;47256;18.904;-99.054;2022-12-26T00:58:50;22.40;65.00
61386;DHT22;47256;18.904;-99.054;2022-12-26T01:01:21;22.30;65.90
61386;DHT22;47256;18.904;-99.054;2022-12-26T01:03:50;22.30;66.10
61386;DHT22;47256;18.904;-99.054;2022-12-26T01:06:18;22.20;66.90
61386;DHT22;47256;18.904;-99.054;2022-12-26T01:08:48;22.20;66.40
61386;DHT22;47256;18.904;-99.054;2022-12-26T01:11:16;22.30;65.40
61386;DHT22;47256;18.904;-99.054;2022-12-26T01:14:10;22.30;64.60
61386;DHT22;47256;18.904;-99.054;2022-12-26T01:16:41;22.30;65.50
61386;DHT22;47256;18.904;-99.054;2022-12-26T01:19:13;22.30;67.60
61386;DHT22;47256;18.904;-99.054;2022-12-26T01:21:41;22.20;67.40
61386;DHT22;47256;18.904;-99.054;2022-12-26T01:24:09;22.10;66.60
61386;DHT22;47256;18.904;-99.054;2022-12-26T01:26:37;22.00;66.30
61386;DHT22;47256;18.904;-99.054;2022-12-26T01:29:04;21.90;66.60
61386;DHT22;47256;18.904;-99.054;2022-12-26T01:31:33;21.90;66.90
61386;DHT22;47256;18.904;-99.054;2022-12-26T01:34:02;21.80;67.60
61386;DHT22;47256;18.904;-99.054;2022-12-26T01:36:29;21.80;67.80
61386;DHT22;47256;18.904;-99.054;2022-12-26T01:38:57;21.70;67.90
61386;DHT22;47256;18.904;-99.054;2022-12-26T01:41:24;21.80;69.20
61386;DHT22;47256;18.904;-99.054;2022-12-26T01:43:58;21.80;69.20
61386;DHT22;47256;18.904;-99.054;2022-12-26T01:46:58;21.70;71.40
61386;DHT22;47256;18.904;-99.054;2022-12-26T01:49:38;21.70;74.50
61386;DHT22;47256;18.904;-99.054;2022-12-26T01:52:11;21.60;75.50
61386;DHT22;47256;18.904;-99.054;2022-12-26T01:54:45;21.60;75.70
61386;DHT22;47256;18.904;-99.054;2022-12-26T01:57:35;21.40;79.30
61386;DHT22;47256;18.904;-99.054;2022-12-26T02:00:07;21.20;81.30
61386;DHT22;47256;18.904;-99.054;2022-12-26T02:02:43;21.00;82.80
61386;DHT22;47256;18.904;-99.054;2022-12-26T02:05:57;20.70;83.70
61386;DHT22;47256;18.904;-99.054;2022-12-26T02:08:34;20.50;83.50
61386;DHT22;47256;18.904;-99.054;2022-12-26T02:11:39;20.40;83.80
61386;DHT22;47256;18.904;-99.054;2022-12-26T02:14:13;20.30;85.00
61386;DHT22;47256;18.904;-99.054;2022-12-26T02:16:44;20.30;84.70
61386;DHT22;47256;18.904;-99.054;2022-12-26T02:19:29;20.30;84.60
61386;DHT22;47256;18.904;-99.054;2022-12-26T02:25:43;20.10;88.00
61386;DHT22;47256;18.904;-99.054;2022-12-26T02:31:35;20.00;86.50
61386;DHT22;47256;18.904;-99.054;2022-12-26T02:37:34;19.90;85.90
61386;DHT22;47256;18.904;-99.054;2022-12-26T02:46:37;20.20;85.30
61386;DHT22;47256;18.904;-99.054;2022-12-26T02:56:09;20.30;87.50
61386;DHT22;47256;18.904;-99.054;2022-12-26T02:59:13;20.30;89.40
61386;DHT22;47256;18.904;-99.054;2022-12-26T03:02:19;20.30;90.00
61386;DHT22;47256;18.904;-99.054;2022-12-26T03:05:44;20.10;90.10
61386;DHT22;47256;18.904;-99.054;2022-12-26T03:08:40;19.90;91.80
61386;DHT22;47256;18.904;-99.054;2022-12-26T03:15:57;19.50;91.70
61386;DHT22;47256;18.904;-99.054;2022-12-26T03:19:02;19.50;92.50
61386;DHT22;47256;18.904;-99.054;2022-12-26T03:22:03;19.30;91.80
61386;DHT22;47256;18.904;-99.054;2022-12-26T03:25:10;19.30;91.80
61386;DHT22;47256;18.904;-99.054;2022-12-26T03:28:01;19.30;91.80
61386;DHT22;47256;18.904;-99.054;2022-12-26T03:30:40;19.30;92.00
61386;DHT22;47256;18.904;-99.054;2022-12-26T03:33:46;19.30;92.20
61386;DHT22;47256;18.904;-99.054;2022-12-26T03:40:45;19.30;92.80
61386;DHT22;47256;18.904;-99.054;2022-12-26T03:44:37;19.30;92.80
61386;DHT22;47256;18.904;-99.054;2022-12-26T03:47:42;19.40;92.90
61386;DHT22;47256;18.904;-99.054;2022-12-26T03:50:45;19.50;93.80
61386;DHT22;47256;18.904;-99.054;2022-12-26T03:53:49;19.60;93.20
61386;DHT22;47256;18.904;-99.054;2022-12-26T03:56:51;19.60;93.50
61386;DHT22;47256;18.904;-99.054;2022-12-26T04:00:05;19.60;93.20
61386;DHT22;47256;18.904;-99.054;2022-12-26T04:03:13;19.50;93.80
61386;DHT22;47256;18.904;-99.054;2022-12-26T04:06:50;19.50;93.70
61386;DHT22;47256;18.904;-99.054;2022-12-26T04:10:12;19.50;94.20
61386;DHT22;47256;18.904;-99.054;2022-12-26T04:13:02;19.50;93.90
61386;DHT22;47256;18.904;-99.054;2022-12-26T04:16:02;19.60;94.00
61386;DHT22;47256;18.904;-99.054;2022-12-26T04:19:14;19.60;93.90
61386;DHT22;47256;18.904;-99.054;2022-12-26T04:27:45;19.50;93.80
61386;DHT22;47256;18.904;-99.054;2022-12-26T04:30:33;19.40;93.70
61386;DHT22;47256;18.904;-99.054;2022-12-26T04:33:27;19.20;94.20
61386;DHT22;47256;18.904;-99.054;2022-12-26T04:36:42;19.20;94.30
61386;DHT22;47256;18.904;-99.054;2022-12-26T04:39:33;19.10;94.10
61386;DHT22;47256;18.904;-99.054;2022-12-26T04:42:24;19.00;94.10
61386;DHT22;47256;18.904;-99.054;2022-12-26T04:45:13;19.00;94.30
61386;DHT22;47256;18.904;-99.054;2022-12-26T04:47:43;18.90;94.30
61386;DHT22;47256;18.904;-99.054;2022-12-26T04:50:32;18.80;94.20
61386;DHT22;47256;18.904;-99.054;2022-12-26T04:53:00;18.80;94.30
61386;DHT22;47256;18.904;-99.054;2022-12-26T04:55:30;18.80;94.00
61386;DHT22;47256;18.904;-99.054;2022-12-26T04:57:58;18.70;94.00
61386;DHT22;47256;18.904;-99.054;2022-12-26T05:00:26;18.70;94.10
61386;DHT22;47256;18.904;-99.054;2022-12-26T05:02:56;18.70;94.20
61386;DHT22;47256;18.904;-99.054;2022-12-26T05:05:48;18.80;94.40
61386;DHT22;47256;18.904;-99.054;2022-12-26T05:08:38;18.60;94.80
61386;DHT22;47256;18.904;-99.054;2022-12-26T05:11:29;18.50;94.60
61386;DHT22;47256;18.904;-99.054;2022-12-26T05:13:57;18.70;94.40
61386;DHT22;47256;18.904;-99.054;2022-12-26T05:16:26;18.80;94.20
61386;DHT22;47256;18.904;-99.054;2022-12-26T05:19:17;18.90;94.30
61386;DHT22;47256;18.904;-99.054;2022-12-26T05:22:05;18.90;94.00
61386;DHT22;47256;18.904;-99.054;2022-12-26T05:24:54;18.80;94.20
61386;DHT22;47256;18.904;-99.054;2022-12-26T05:27:42;18.80;94.10
61386;DHT22;47256;18.904;-99.054;2022-12-26T05:30:30;18.80;94.10
61386;DHT22;47256;18.904;-99.054;2022-12-26T05:32:57;18.90;94.00
61386;DHT22;47256;18.904;-99.054;2022-12-26T05:35:43;18.90;94.00
61386;DHT22;47256;18.904;-99.054;2022-12-26T05:38:11;18.90;94.00
61386;DHT22;47256;18.904;-99.054;2022-12-26T05:40:38;18.90;94.10
61386;DHT22;47256;18.904;-99.054;2022-12-26T05:43:06;18.90;94.30
61386;DHT22;47256;18.904;-99.054;2022-12-26T05:45:33;18.80;94.60
61386;DHT22;47256;18.904;-99.054;2022-12-26T05:48:01;18.70;94.50
61386;DHT22;47256;18.904;-99.054;2022-12-26T05:50:28;18.80;94.30
61386;DHT22;47256;18.904;-99.054;2022-12-26T05:52:56;18.80;94.20
61386;DHT22;47256;18.904;-99.054;2022-12-26T05:55:26;18.80;94.50
61386;DHT22;47256;18.904;-99.054;2022-12-26T05:57:53;18.90;94.30
61386;DHT22;47256;18.904;-99.054;2022-12-26T06:00:21;18.90;94.10
61386;DHT22;47256;18.904;-99.054;2022-12-26T06:02:48;18.90;94.20
61386;DHT22;47256;18.904;-99.054;2022-12-26T06:05:21;18.90;94.10
61386;DHT22;47256;18.904;-99.054;2022-12-26T06:07:48;19.00;93.90
61386;DHT22;47256;18.904;-99.054;2022-12-26T06:10:16;19.00;93.80
61386;DHT22;47256;18.904;-99.054;2022-12-26T06:12:43;18.90;93.80
61386;DHT22;47256;18.904;-99.054;2022-12-26T06:15:10;18.90;94.00
61386;DHT22;47256;18.904;-99.054;2022-12-26T06:17:38;18.90;94.00
61386;DHT22;47256;18.904;-99.054;2022-12-26T06:20:08;18.90;94.00
61386;DHT22;47256;18.904;-99.054;2022-12-26T06:22:38;18.90;93.80
61386;DHT22;47256;18.904;-99.054;2022-12-26T06:25:05;18.80;94.10
61386;DHT22;47256;18.904;-99.054;2022-12-26T06:27:35;18.70;94.00
61386;DHT22;47256;18.904;-99.054;2022-12-26T06:30:02;18.70;94.00
61386;DHT22;47256;18.904;-99.054;2022-12-26T06:32:32;18.70;93.90
61386;DHT22;47256;18.904;-99.054;2022-12-26T06:34:59;18.70;93.70
61386;DHT22;47256;18.904;-99.054;2022-12-26T06:37:28;18.70;93.90
61386;DHT22;47256;18.904;-99.054;2022-12-26T06:39:56;18.60;94.00
61386;DHT22;47256;18.904;-99.054;2022-12-26T06:42:24;18.50;94.10
61386;DHT22;47256;18.904;-99.054;2022-12-26T06:44:51;18.50;94.10
61386;DHT22;47256;18.904;-99.054;2022-12-26T06:47:19;18.40;94.20
61386;DHT22;47256;18.904;-99.054;2022-12-26T06:49:46;18.30;94.20
61386;DHT22;47256;18.904;-99.054;2022-12-26T06:52:13;18.30;94.40
61386;DHT22;47256;18.904;-99.054;2022-12-26T06:54:40;18.40;94.20
61386;DHT22;47256;18.904;-99.054;2022-12-26T06:57:07;18.40;94.30
61386;DHT22;47256;18.904;-99.054;2022-12-26T06:59:35;18.50;94.10
61386;DHT22;47256;18.904;-99.054;2022-12-26T07:02:02;18.50;94.10
61386;DHT22;47256;18.904;-99.054;2022-12-26T07:04:30;18.50;94.00
61386;DHT22;47256;18.904;-99.054;2022-12-26T07:06:57;18.50;94.40
61386;DHT22;47256;18.904;-99.054;2022-12-26T07:09:24;18.60;94.30
61386;DHT22;47256;18.904;-99.054;2022-12-26T07:11:51;18.50;94.30
61386;DHT22;47256;18.904;-99.054;2022-12-26T07:14:18;18.50;94.50
61386;DHT22;47256;18.904;-99.054;2022-12-26T07:16:45;18.40;94.50
61386;DHT22;47256;18.904;-99.054;2022-12-26T07:19:14;18.40;94.60
61386;DHT22;47256;18.904;-99.054;2022-12-26T07:21:44;18.30;95.00
61386;DHT22;47256;18.904;-99.054;2022-12-26T07:24:19;18.30;95.00
61386;DHT22;47256;18.904;-99.054;2022-12-26T07:26:48;18.40;95.00
61386;DHT22;47256;18.904;-99.054;2022-12-26T07:29:15;18.50;94.90
61386;DHT22;47256;18.904;-99.054;2022-12-26T07:31:44;18.50;94.80
61386;DHT22;47256;18.904;-99.054;2022-12-26T07:34:11;18.60;94.60
61386;DHT22;47256;18.904;-99.054;2022-12-26T07:36:42;18.60;94.40
61386;DHT22;47256;18.904;-99.054;2022-12-26T07:39:12;18.60;94.80
61386;DHT22;47256;18.904;-99.054;2022-12-26T07:41:39;18.60;94.70
61386;DHT22;47256;18.904;-99.054;2022-12-26T07:44:27;18.60;94.70
61386;DHT22;47256;18.904;-99.054;2022-12-26T07:46:56;18.60;94.40
61386;DHT22;47256;18.904;-99.054;2022-12-26T07:49:24;18.50;94.30
61386;DHT22;47256;18.904;-99.054;2022-12-26T07:51:51;18.60;94.20
61386;DHT22;47256;18.904;-99.054;2022-12-26T07:54:19;18.60;94.40
61386;DHT22;47256;18.904;-99.054;2022-12-26T07:56:46;18.50;94.60
61386;DHT22;47256;18.904;-99.054;2022-12-26T07:59:16;18.40;94.60
61386;DHT22;47256;18.904;-99.054;2022-12-26T08:01:44;18.30;94.90
61386;DHT22;47256;18.904;-99.054;2022-12-26T08:04:15;18.10;95.10
61386;DHT22;47256;18.904;-99.054;2022-12-26T08:06:45;18.10;95.30
61386;DHT22;47256;18.904;-99.054;2022-12-26T08:09:14;18.10;95.40
61386;DHT22;47256;18.904;-99.054;2022-12-26T08:11:42;18.10;95.30
61386;DHT22;47256;18.904;-99.054;2022-12-26T08:14:13;18.10;95.30
61386;DHT22;47256;18.904;-99.054;2022-12-26T08:16:45;18.10;95.30
61386;DHT22;47256;18.904;-99.054;2022-12-26T08:19:13;18.00;95.30
61386;DHT22;47256;18.904;-99.054;2022-12-26T08:21:46;18.00;95.40
61386;DHT22;47256;18.904;-99.054;2022-12-26T08:24:15;18.10;95.30
61386;DHT22;47256;18.904;-99.054;2022-12-26T08:26:42;18.00;95.30
61386;DHT22;47256;18.904;-99.054;2022-12-26T08:29:10;17.90;95.50
61386;DHT22;47256;18.904;-99.054;2022-12-26T08:31:37;17.90;95.40
61386;DHT22;47256;18.904;-99.054;2022-12-26T08:34:05;17.80;95.40
61386;DHT22;47256;18.904;-99.054;2022-12-26T08:36:32;17.80;95.50
61386;DHT22;47256;18.904;-99.054;2022-12-26T08:38:59;17.80;95.40
61386;DHT22;47256;18.904;-99.054;2022-12-26T08:41:27;17.80;95.60
61386;DHT22;47256;18.904;-99.054;2022-12-26T08:43:54;17.80;95.60
61386;DHT22;47256;18.904;-99.054;2022-12-26T08:46:22;17.70;95.80
61386;DHT22;47256;18.904;-99.054;2022-12-26T08:48:50;17.70;95.90
61386;DHT22;47256;18.904;-99.054;2022-12-26T08:51:22;17.80;95.80
61386;DHT22;47256;18.904;-99.054;2022-12-26T08:53:53;17.80;95.80
61386;DHT22;47256;18.904;-99.054;2022-12-26T08:56:25;17.90;95.90
61386;DHT22;47256;18.904;-99.054;2022-12-26T08:58:54;17.90;95.60
61386;DHT22;47256;18.904;-99.054;2022-12-26T09:01:26;17.90;95.60
61386;DHT22;47256;18.904;-99.054;2022-12-26T09:04:02;17.90;95.90
61386;DHT22;47256;18.904;-99.054;2022-12-26T09:06:34;17.80;95.90
61386;DHT22;47256;18.904;-99.054;2022-12-26T09:09:02;17.60;96.00
61386;DHT22;47256;18.904;-99.054;2022-12-26T09:11:29;17.60;96.20
61386;DHT22;47256;18.904;-99.054;2022-12-26T09:14:00;17.60;96.10
61386;DHT22;47256;18.904;-99.054;2022-12-26T09:16:33;17.70;95.90
61386;DHT22;47256;18.904;-99.054;2022-12-26T09:19:06;17.80;95.80
61386;DHT22;47256;18.904;-99.054;2022-12-26T09:21:33;17.80;95.70
61386;DHT22;47256;18.904;-99.054;2022-12-26T09:24:06;17.80;95.90
61386;DHT22;47256;18.904;-99.054;2022-12-26T09:26:34;17.80;95.80
61386;DHT22;47256;18.904;-99.054;2022-12-26T09:29:01;17.70;95.90
61386;DHT22;47256;18.904;-99.054;2022-12-26T09:31:32;17.70;96.00
61386;DHT22;47256;18.904;-99.054;2022-12-26T09:34:03;17.60;96.20
61386;DHT22;47256;18.904;-99.054;2022-12-26T09:36:34;17.60;96.00
61386;DHT22;47256;18.904;-99.054;2022-12-26T09:39:04;17.60;96.10
61386;DHT22;47256;18.904;-99.054;2022-12-26T09:47:20;17.80;95.90
61386;DHT22;47256;18.904;-99.054;2022-12-26T09:50:03;17.80;95.90
61386;DHT22;47256;18.904;-99.054;2022-12-26T10:04:35;17.80;95.70
61386;DHT22;47256;18.904;-99.054;2022-12-26T10:06:37;17.70;95.60
61386;DHT22;47256;18.904;-99.054;2022-12-26T10:09:39;17.60;95.80
61386;DHT22;47256;18.904;-99.054;2022-12-26T10:23:38;17.30;96.30
61386;DHT22;47256;18.904;-99.054;2022-12-26T10:26:19;17.40;96.40
61386;DHT22;47256;18.904;-99.054;2022-12-26T10:32:10;17.30;96.20
61386;DHT22;47256;18.904;-99.054;2022-12-26T10:40:21;17.10;96.30
61386;DHT22;47256;18.904;-99.054;2022-12-26T10:42:53;17.10;96.50
61386;DHT22;47256;18.904;-99.054;2022-12-26T10:45:38;17.20;96.20
61386;DHT22;47256;18.904;-99.054;2022-12-26T10:48:15;17.30;96.30
61386;DHT22;47256;18.904;-99.054;2022-12-26T10:50:47;17.30;96.30
61386;DHT22;47256;18.904;-99.054;2022-12-26T10:53:16;17.30;96.30
61386;DHT22;47256;18.904;-99.054;2022-12-26T10:55:45;17.30;96.20
61386;DHT22;47256;18.904;-99.054;2022-12-26T11:00:44;17.30;95.90
61386;DHT22;47256;18.904;-99.054;2022-12-26T11:03:17;17.30;96.00
61386;DHT22;47256;18.904;-99.054;2022-12-26T11:05:53;17.30;96.30
61386;DHT22;47256;18.904;-99.054;2022-12-26T11:08:29;17.30;96.10
61386;DHT22;47256;18.904;-99.054;2022-12-26T11:13:34;17.20;96.10
61386;DHT22;47256;18.904;-99.054;2022-12-26T11:16:04;17.20;96.10
61386;DHT22;47256;18.904;-99.054;2022-12-26T11:18:37;17.10;96.10
61386;DHT22;47256;18.904;-99.054;2022-12-26T11:26:37;16.50;96.90
61386;DHT22;47256;18.904;-99.054;2022-12-26T11:31:59;16.60;96.90
61386;DHT22;47256;18.904;-99.054;2022-12-26T11:37:03;16.50;96.80
61386;DHT22;47256;18.904;-99.054;2022-12-26T11:39:35;16.50;96.70
61386;DHT22;47256;18.904;-99.054;2022-12-26T11:42:10;16.60;96.60
61386;DHT22;47256;18.904;-99.054;2022-12-26T11:44:44;16.60;96.00
61386;DHT22;47256;18.904;-99.054;2022-12-26T11:47:16;16.50;96.10
61386;DHT22;47256;18.904;-99.054;2022-12-26T11:58:18;16.30;96.30
61386;DHT22;47256;18.904;-99.054;2022-12-26T12:03:30;16.40;96.20
61386;DHT22;47256;18.904;-99.054;2022-12-26T12:18:04;16.30;96.20
61386;DHT22;47256;18.904;-99.054;2022-12-26T12:23:53;16.40;95.90
61386;DHT22;47256;18.904;-99.054;2022-12-26T12:27:09;16.20;95.80
61386;DHT22;47256;18.904;-99.054;2022-12-26T12:32:28;16.20;96.10
61386;DHT22;47256;18.904;-99.054;2022-12-26T12:38:12;16.20;96.00
61386;DHT22;47256;18.904;-99.054;2022-12-26T12:46:42;16.10;96.40
61386;DHT22;47256;18.904;-99.054;2022-12-26T12:52:09;16.00;96.10
61386;DHT22;47256;18.904;-99.054;2022-12-26T13:00:45;16.00;96.50
61386;DHT22;47256;18.904;-99.054;2022-12-26T13:03:48;15.90;96.50
61386;DHT22;47256;18.904;-99.054;2022-12-26T13:09:14;15.70;96.60
61386;DHT22;47256;18.904;-99.054;2022-12-26T13:12:03;15.70;96.30
61386;DHT22;47256;18.904;-99.054;2022-12-26T13:14:50;15.70;96.50
61386;DHT22;47256;18.904;-99.054;2022-12-26T13:17:50;15.60;96.50
61386;DHT22;47256;18.904;-99.054;2022-12-26T13:23:03;15.50;96.20
61386;DHT22;47256;18.904;-99.054;2022-12-26T13:26:04;15.40;96.50
61386;DHT22;47256;18.904;-99.054;2022-12-26T13:28:41;15.50;96.40
61386;DHT22;47256;18.904;-99.054;2022-12-26T13:31:12;15.60;96.20
61386;DHT22;47256;18.904;-99.054;2022-12-26T13:33:42;15.50;95.80
61386;DHT22;47256;18.904;-99.054;2022-12-26T13:37:03;15.40;96.20
61386;DHT22;47256;18.904;-99.054;2022-12-26T13:42:56;15.50;96.30
61386;DHT22;47256;18.904;-99.054;2022-12-26T13:50:53;15.80;96.30
61386;DHT22;47256;18.904;-99.054;2022-12-26T14:01:54;15.90;96.20
61386;DHT22;47256;18.904;-99.054;2022-12-26T14:04:40;16.00;96.00
61386;DHT22;47256;18.904;-99.054;2022-12-26T14:10:17;16.30;95.60
61386;DHT22;47256;18.904;-99.054;2022-12-26T14:13:49;16.40;95.40
61386;DHT22;47256;18.904;-99.054;2022-12-26T14:16:03;16.50;95.60
61386;DHT22;47256;18.904;-99.054;2022-12-26T14:21:39;16.70;95.60
61386;DHT22;47256;18.904;-99.054;2022-12-26T14:27:46;17.00;95.30
61386;DHT22;47256;18.904;-99.054;2022-12-26T14:35:56;17.50;94.80
61386;DHT22;47256;18.904;-99.054;2022-12-26T14:41:27;17.70;94.70
61386;DHT22;47256;18.904;-99.054;2022-12-26T14:52:30;18.10;95.10
61386;DHT22;47256;18.904;-99.054;2022-12-26T14:54:59;18.30;94.30
61386;DHT22;47256;18.904;-99.054;2022-12-26T14:57:39;18.50;95.00
61386;DHT22;47256;18.904;-99.054;2022-12-26T15:03:17;18.90;94.00
61386;DHT22;47256;18.904;-99.054;2022-12-26T15:05:50;19.10;94.40
61386;DHT22;47256;18.904;-99.054;2022-12-26T15:17:38;19.90;92.90
61386;DHT22;47256;18.904;-99.054;2022-12-26T15:20:41;20.10;91.70
61386;DHT22;47256;18.904;-99.054;2022-12-26T15:28:56;20.40;92.00
61386;DHT22;47256;18.904;-99.054;2022-12-26T15:31:35;20.60;92.60
61386;DHT22;47256;18.904;-99.054;2022-12-26T15:36:42;20.70;91.10
61386;DHT22;47256;18.904;-99.054;2022-12-26T15:48:06;21.20;90.70
61386;DHT22;47256;18.904;-99.054;2022-12-26T15:53:52;21.40;90.70
61386;DHT22;47256;18.904;-99.054;2022-12-26T16:01:58;21.70;90.10
61386;DHT22;47256;18.904;-99.054;2022-12-26T16:04:39;21.60;89.90
61386;DHT22;47256;18.904;-99.054;2022-12-26T16:09:51;21.80;89.50
61386;DHT22;47256;18.904;-99.054;2022-12-26T16:17:40;21.90;90.70
61386;DHT22;47256;18.904;-99.054;2022-12-26T16:23:26;22.30;89.10
61386;DHT22;47256;18.904;-99.054;2022-12-26T16:25:56;22.20;88.20
61386;DHT22;47256;18.904;-99.054;2022-12-26T16:28:37;22.10;89.90
61386;DHT22;47256;18.904;-99.054;2022-12-26T16:31:06;22.20;89.10
61386;DHT22;47256;18.904;-99.054;2022-12-26T16:33:40;22.40;89.50
61386;DHT22;47256;18.904;-99.054;2022-12-26T16:36:19;22.40;87.40
61386;DHT22;47256;18.904;-99.054;2022-12-26T16:38:49;22.40;87.80
61386;DHT22;47256;18.904;-99.054;2022-12-26T16:41:23;22.40;87.50
61386;DHT22;47256;18.904;-99.054;2022-12-26T16:43:53;22.60;87.50
61386;DHT22;47256;18.904;-99.054;2022-12-26T16:46:27;22.70;86.10
61386;DHT22;47256;18.904;-99.054;2022-12-26T16:48:58;23.00;86.30
61386;DHT22;47256;18.904;-99.054;2022-12-26T16:51:43;23.00;85.80
61386;DHT22;47256;18.904;-99.054;2022-12-26T16:59:56;23.50;85.70
61386;DHT22;47256;18.904;-99.054;2022-12-26T17:02:31;23.60;84.60
61386;DHT22;47256;18.904;-99.054;2022-12-26T17:07:51;23.60;81.10
61386;DHT22;47256;18.904;-99.054;2022-12-26T17:10:40;23.70;81.40
61386;DHT22;47256;18.904;-99.054;2022-12-26T17:13:36;23.80;79.80
61386;DHT22;47256;18.904;-99.054;2022-12-26T17:16:06;23.80;77.30
61386;DHT22;47256;18.904;-99.054;2022-12-26T17:18:46;24.00;79.60
61386;DHT22;47256;18.904;-99.054;2022-12-26T17:26:50;24.50;75.80
61386;DHT22;47256;18.904;-99.054;2022-12-26T17:29:51;24.70;74.80
61386;DHT22;47256;18.904;-99.054;2022-12-26T17:34:54;25.00;73.60
61386;DHT22;47256;18.904;-99.054;2022-12-26T17:37:24;25.10;68.50
61386;DHT22;47256;18.904;-99.054;2022-12-26T17:42:50;25.30;72.10
61386;DHT22;47256;18.904;-99.054;2022-12-26T17:45:23;25.30;72.40
61386;DHT22;47256;18.904;-99.054;2022-12-26T17:47:56;25.10;71.50
61386;DHT22;47256;18.904;-99.054;2022-12-26T17:50:52;25.20;71.40
61386;DHT22;47256;18.904;-99.054;2022-12-26T17:53:30;25.10;71.20
61386;DHT22;47256;18.904;-99.054;2022-12-26T17:56:00;25.20;72.30
61386;DHT22;47256;18.904;-99.054;2022-12-26T17:58:29;25.40;71.60
61386;DHT22;47256;18.904;-99.054;2022-12-26T18:00:58;25.50;71.50
61386;DHT22;47256;18.904;-99.054;2022-12-26T18:03:26;25.60;71.40
61386;DHT22;47256;18.904;-99.054;2022-12-26T21:27:16;24.80;67.50
61386;DHT22;47256;18.904;-99.054;2022-12-26T21:29:45;24.80;67.70
61386;DHT22;47256;18.904;-99.054;2022-12-26T21:32:14;24.80;69.20
61386;DHT22;47256;18.904;-99.054;2022-12-26T21:34:42;24.80;68.60
61386;DHT22;47256;18.904;-99.054;2022-12-26T21:37:09;24.70;69.10
61386;DHT22;47256;18.904;-99.054;2022-12-26T21:39:55;24.70;69.30
61386;DHT22;47256;18.904;-99.054;2022-12-26T21:42:25;24.60;69.40
61386;DHT22;47256;18.904;-99.054;2022-12-26T21:44:52;24.60;67.90
61386;DHT22;47256;18.904;-99.054;2022-12-26T21:47:27;24.60;68.80
61386;DHT22;47256;18.904;-99.054;2022-12-26T21:49:55;24.50;67.30
61386;DHT22;47256;18.904;-99.054;2022-12-26T21:52:22;24.50;70.00
61386;DHT22;47256;18.904;-99.054;2022-12-26T21:54:49;24.50;69.40
61386;DHT22;47256;18.904;-99.054;2022-12-26T21:57:43;24.50;67.80
61386;DHT22;47256;18.904;-99.054;2022-12-26T22:00:11;24.50;69.40
61386;DHT22;47256;18.904;-99.054;2022-12-26T22:02:38;24.40;66.10
61386;DHT22;47256;18.904;-99.054;2022-12-26T22:05:27;24.40;67.10
61386;DHT22;47256;18.904;-99.054;2022-12-26T22:07:57;24.40;67.70
61386;DHT22;47256;18.904;-99.054;2022-12-26T22:10:27;24.40;71.30
61386;DHT22;47256;18.904;-99.054;2022-12-26T22:13:22;24.40;68.90
61386;DHT22;47256;18.904;-99.054;2022-12-26T22:15:53;24.40;69.20
61386;DHT22;47256;18.904;-99.054;2022-12-26T22:18:40;24.30;68.80
61386;DHT22;47256;18.904;-99.054;2022-12-26T22:21:16;24.30;68.50
61386;DHT22;47256;18.904;-99.054;2022-12-26T22:23:47;24.20;68.60
61386;DHT22;47256;18.904;-99.054;2022-12-26T22:26:20;24.20;69.10
61386;DHT22;47256;18.904;-99.054;2022-12-26T22:28:48;24.20;73.40
61386;DHT22;47256;18.904;-99.054;2022-12-26T22:31:21;24.10;74.10
61386;DHT22;47256;18.904;-99.054;2022-12-26T22:33:55;24.10;72.10
61386;DHT22;47256;18.904;-99.054;2022-12-26T22:36:24;24.10;73.20
61386;DHT22;47256;18.904;-99.054;2022-12-26T22:38:51;24.10;73.30
61386;DHT22;47256;18.904;-99.054;2022-12-26T22:41:20;24.10;71.40
61386;DHT22;47256;18.904;-99.054;2022-12-26T22:43:48;24.10;71.60
61386;DHT22;47256;18.904;-99.054;2022-12-26T22:46:17;24.10;71.80
61386;DHT22;47256;18.904;-99.054;2022-12-26T22:48:45;24.10;72.10
61386;DHT22;47256;18.904;-99.054;2022-12-26T22:51:18;24.10;73.00
61386;DHT22;47256;18.904;-99.054;2022-12-26T22:53:47;24.00;70.30
61386;DHT22;47256;18.904;-99.054;2022-12-26T22:56:15;24.00;70.50
61386;DHT22;47256;18.904;-99.054;2022-12-26T22:58:42;24.00;72.10
61386;DHT22;47256;18.904;-99.054;2022-12-26T23:01:17;23.90;71.60
61386;DHT22;47256;18.904;-99.054;2022-12-26T23:03:46;23.80;72.00
61386;DHT22;47256;18.904;-99.054;2022-12-26T23:06:25;23.80;72.00
61386;DHT22;47256;18.904;-99.054;2022-12-26T23:08:55;23.70;72.10
61386;DHT22;47256;18.904;-99.054;2022-12-26T23:11:26;23.70;72.90
61386;DHT22;47256;18.904;-99.054;2022-12-26T23:14:01;23.60;73.10
61386;DHT22;47256;18.904;-99.054;2022-12-26T23:19:47;23.60;73.50
61386;DHT22;47256;18.904;-99.054;2022-12-26T23:22:31;23.50;73.80
61386;DHT22;47256;18.904;-99.054;2022-12-26T23:25:01;23.50;74.00
61386;DHT22;47256;18.904;-99.054;2022-12-26T23:27:28;23.40;74.40
61386;DHT22;47256;18.904;-99.054;2022-12-26T23:30:17;23.40;74.80
61386;DHT22;47256;18.904;-99.054;2022-12-26T23:32:52;23.40;75.00
61386;DHT22;47256;18.904;-99.054;2022-12-26T23:35:20;23.30;74.70
61386;DHT22;47256;18.904;-99.054;2022-12-26T23:37:49;23.20;75.20